Rechercher aéroport 
image banner adimage banner adimage banner ad
image banner ad

KSCK - Stockton Metropolitan

Situé à Stockton, United States

ICAO - SCK, IATA -

Données fournies par Airmate  

Information générale

Coordonnées: N37°53'40" W121°14'19"
Élévation : 33 feet MSL.
Variation magnétique : 14° East
Voir autres Aéroports à California

Données opérationnelles

Special qualification required
Heure actuelle UTC:
Heure actuelle locale:
Météo
METAR: KSCK 020555Z AUTO 32006KT 10SM CLR 19/12 A3001 RMK AO2 SLP162 T01890117 10322 20189 51018
TAF: KSCK 020538Z 0206/0306 31010KT P6SM SKC FM020800 35004KT P6SM SKC FM022000 32007KT P6SM BKN250
Voir NOTAMs / SUP AIP / TFR affectant cet aéroport [VIEW]
Fréquences de communication: [VIEW]

Pistes:

Identifiant RWYQFULongueur (ft)Largeur (ft)SurfaceLDA (ft)
11R128°444875ASPH4448
29L308°444875ASPH3386
11L128°10249150ASPH8650
29R308°10249150ASPH8650

Coordonnées de l'aéroport

Adresse: Stockton United States

Autres services d'aviation

Écoles de pilotage

Rj Tutt Aviation

Rj Tutt Aviation

Vue satellite de KSCK